Historyczne dane pomiarowe

Dodano dane terminowe – wersja testowa.

Dane z okresu 1951-2018

Wersja bazy: 1.27 [2018-11-28, lista zmian], aktualizacja planowana na 2018-12-07

Dane meteo z obszaru Polski uzyskane na podstawie danych udostępnionych przez Instytut Meteorologii i Gospodarki Wodnej – Państwowy Instytut Badawczy.

 

Wybierz Datę:    

       

TemperaturaWilgotnośćWiatrCiśnienieOpadyŚniegCzas trwania zjawisk
 Stacja t tx tn tng RH VA  wxwx mslp ppp RRR   cm mm wxwxwxwxwxwxwx
1980-11-08 -2.0 -0.1 -5.2 -6.9-- 8.0 2.7---- 0.0------------
1980-11-09 -0.3 -0.1 -1.2 -1.0-- 8.0 3.0---- 0.0------------
1980-11-10 0.2 2.4 -0.8 -2.0-- 3.7 3.7---- 0.2------------
1980-11-11 -1.6 0.6 -4.7 -5.8-- 3.0 2.7---- 0.0------------
1980-11-12 0.3 1.9 -1.8 -3.3-- 8.0 3.3---- 0.1------------
1980-11-13 1.9 4.7 0.4 -1.1-- 3.7 3.0---- 0.0------------
1980-11-14 4.1 6.8 -1.1 -2.3-- 8.0 5.0---- 1.4------------
1980-11-15 4.2 6.0 1.3 0.8-- 8.0 4.0---- 10.5------------
1980-11-16 10.9 14.3 5.0 4.8-- 6.7 7.0---- 2.8------------
1980-11-17 11.8 13.7 10.4 8.8-- 6.0 4.0---- 0.0------------
1980-11-18 11.3 13.9 7.2 4.7-- 6.3 6.3---- 0.3------------
1980-11-19 5.3 11.7 2.4 0.6-- 2.3 7.0---- 2.3------------
1980-11-20 1.3 4.1 -2.7 -4.4-- 7.7 1.7---- 0.0------------
1980-11-21 6.5 10.7 2.4 -1.2-- 7.7 2.3---- 0.0------------
1980-11-22 9.9 12.8 7.2 5.3-- 5.7 3.3---- 2.0------------
1980-11-23 12.0 13.6 10.2 9.8-- 8.0 4.3---- 0.2------------
1980-11-24 12.2 13.2 11.5 10.9-- 8.0 3.3---- 0.8------------
1980-11-25 10.8 13.0 9.3 9.0-- 7.7 4.3---- 1.8------------
1980-11-26 5.6 9.6 2.5 1.4-- 7.0 4.0---- 0.2------------
1980-11-27 -0.8 3.1 -4.4 -5.4-- 1.7 2.0---- 0.0------------
1980-11-28 -1.5 0.5 -4.4 -4.8-- 5.0 0.3---- 0.0------------
1980-11-29 -0.3 1.1 -2.7 -4.1-- 8.0 1.7---- 2.5------------
1980-11-30 -1.6 1.1 -5.6 -7.0-- 2.7 5.3---- 0.1-- 2---------
1980-12-01 -8.5 -4.5-11.6-15.4-- 0.7 1.3---- 0.0-- 1---------
1980-12-02 -8.8 -4.2-14.1-16.4-- 6.0 2.7---- 2.3-- 1---------
1980-12-03 -2.6 -0.9 -5.3-11.3-- 8.0 4.0---- 1.5-- 2---------
1980-12-04 -6.7 -1.8-10.7-17.4-- 0.3 3.3---- 0.0-- 6---------
1980-12-05-10.4 -5.8-16.0-24.1-- 3.0 2.7---- 0.6-- 6---------
1980-12-06-10.1 -6.4-14.6-24.7-- 5.3 4.0---- 0.7-- 8---------
1980-12-07-13.2 -8.5-21.0-27.8-- 4.3 2.7---- 0.0-- 10---------
288.3 ms

 

Źródłem pochodzenia danych jest Instytut Meteorologii i Gospodarki Wodnej – Państwowy Instytut Badawczy. Dane Instytutu Meteorologii i Gospodarki Wodnej – Państwowego Instytutu Badawczego zostały przetworzone.

Dane źródłowe można odnaleźć na stronie https://dane.imgw.pl